sensor_id;sensor_type;location;lat;lon;timestamp;pressure;altitude;pressure_sealevel;temperature;humidity
21357;BME280;10836;53.068;18.234;2023-06-22T00:00:02;101267.69;;;17.71;100.00
21357;BME280;10836;53.068;18.234;2023-06-22T00:02:57;101255.22;;;17.73;100.00
21357;BME280;10836;53.068;18.234;2023-06-22T00:05:25;101262.84;;;17.76;100.00
21357;BME280;10836;53.068;18.234;2023-06-22T00:07:52;101258.34;;;17.80;100.00
21357;BME280;10836;53.068;18.234;2023-06-22T00:10:19;101264.19;;;17.92;100.00
21357;BME280;10836;53.068;18.234;2023-06-22T00:12:46;101274.22;;;17.88;100.00
21357;BME280;10836;53.068;18.234;2023-06-22T00:15:12;101274.63;;;17.95;100.00
21357;BME280;10836;53.068;18.234;2023-06-22T00:17:39;101280.66;;;17.98;100.00
21357;BME280;10836;53.068;18.234;2023-06-22T00:20:07;101277.28;;;18.01;100.00
21357;BME280;10836;53.068;18.234;2023-06-22T00:22:35;101289.03;;;17.92;100.00
21357;BME280;10836;53.068;18.234;2023-06-22T00:25:09;101284.53;;;17.97;100.00
21357;BME280;10836;53.068;18.234;2023-06-22T00:27:36;101282.81;;;18.01;100.00
21357;BME280;10836;53.068;18.234;2023-06-22T00:30:06;101274.00;;;17.99;100.00
21357;BME280;10836;53.068;18.234;2023-06-22T00:32:33;101277.91;;;17.84;100.00
21357;BME280;10836;53.068;18.234;2023-06-22T00:35:00;101283.00;;;17.90;100.00
21357;BME280;10836;53.068;18.234;2023-06-22T00:37:29;101281.66;;;18.02;100.00
21357;BME280;10836;53.068;18.234;2023-06-22T00:39:56;101274.00;;;17.99;100.00
21357;BME280;10836;53.068;18.234;2023-06-22T00:42:23;101281.38;;;18.03;100.00
21357;BME280;10836;53.068;18.234;2023-06-22T00:44:52;101276.66;;;18.04;100.00
21357;BME280;10836;53.068;18.234;2023-06-22T00:47:19;101279.31;;;17.95;100.00
21357;BME280;10836;53.068;18.234;2023-06-22T00:49:48;101295.09;;;17.94;100.00
21357;BME280;10836;53.068;18.234;2023-06-22T00:52:19;101292.22;;;18.00;100.00
21357;BME280;10836;53.068;18.234;2023-06-22T00:54:48;101289.34;;;18.05;100.00
21357;BME280;10836;53.068;18.234;2023-06-22T00:57:18;101286.06;;;18.03;100.00
21357;BME280;10836;53.068;18.234;2023-06-22T00:59:47;101290.88;;;17.97;100.00
21357;BME280;10836;53.068;18.234;2023-06-22T01:02:15;101284.53;;;17.97;100.00
21357;BME280;10836;53.068;18.234;2023-06-22T01:04:42;101283.41;;;17.98;100.00
21357;BME280;10836;53.068;18.234;2023-06-22T01:07:39;101281.56;;;17.93;100.00
21357;BME280;10836;53.068;18.234;2023-06-22T01:10:16;101284.03;;;17.94;100.00
21357;BME280;10836;53.068;18.234;2023-06-22T01:12:51;101283.81;;;17.91;100.00
21357;BME280;10836;53.068;18.234;2023-06-22T01:15:32;101280.25;;;17.90;100.00
21357;BME280;10836;53.068;18.234;2023-06-22T01:18:04;101281.56;;;17.79;100.00
21357;BME280;10836;53.068;18.234;2023-06-22T01:20:34;101279.31;;;17.81;100.00
21357;BME280;10836;53.068;18.234;2023-06-22T01:23:09;101294.50;;;17.70;100.00
21357;BME280;10836;53.068;18.234;2023-06-22T01:25:47;101289.47;;;17.72;100.00
21357;BME280;10836;53.068;18.234;2023-06-22T01:28:53;101281.16;;;17.58;100.00
21357;BME280;10836;53.068;18.234;2023-06-22T01:31:24;101292.41;;;17.62;100.00
21357;BME280;10836;53.068;18.234;2023-06-22T01:34:00;101283.00;;;17.63;100.00
21357;BME280;10836;53.068;18.234;2023-06-22T01:36:29;101279.13;;;17.64;100.00
21357;BME280;10836;53.068;18.234;2023-06-22T01:38:57;101280.78;;;17.65;100.00
21357;BME280;10836;53.068;18.234;2023-06-22T01:41:26;101290.97;;;17.65;100.00
21357;BME280;10836;53.068;18.234;2023-06-22T01:43:55;101287.34;;;17.69;100.00
21357;BME280;10836;53.068;18.234;2023-06-22T01:46:22;101278.53;;;17.67;100.00
21357;BME280;10836;53.068;18.234;2023-06-22T01:48:50;101287.84;;;17.71;100.00
21357;BME280;10836;53.068;18.234;2023-06-22T01:51:17;101281.59;;;17.66;100.00
21357;BME280;10836;53.068;18.234;2023-06-22T01:53:44;101279.34;;;17.68;100.00
21357;BME280;10836;53.068;18.234;2023-06-22T01:56:12;101279.72;;;17.61;100.00
21357;BME280;10836;53.068;18.234;2023-06-22T02:01:31;101286.06;;;17.61;100.00
21357;BME280;10836;53.068;18.234;2023-06-22T02:04:08;101285.44;;;17.51;100.00
21357;BME280;10836;53.068;18.234;2023-06-22T02:06:42;101282.16;;;17.49;100.00
21357;BME280;10836;53.068;18.234;2023-06-22T02:09:17;101284.84;;;17.54;100.00
21357;BME280;10836;53.068;18.234;2023-06-22T02:11:46;101283.81;;;17.50;100.00
21357;BME280;10836;53.068;18.234;2023-06-22T02:14:15;101282.66;;;17.37;100.00
21357;BME280;10836;53.068;18.234;2023-06-22T02:16:45;101285.53;;;17.32;100.00
21357;BME280;10836;53.068;18.234;2023-06-22T02:19:12;101291.47;;;17.25;100.00
21357;BME280;10836;53.068;18.234;2023-06-22T02:21:43;101287.66;;;17.21;100.00
21357;BME280;10836;53.068;18.234;2023-06-22T02:24:10;101291.56;;;17.20;100.00
21357;BME280;10836;53.068;18.234;2023-06-22T02:26:37;101293.97;;;17.08;100.00
21357;BME280;10836;53.068;18.234;2023-06-22T02:29:06;101308.28;;;17.10;100.00
21357;BME280;10836;53.068;18.234;2023-06-22T02:31:33;101308.53;;;16.95;100.00
21357;BME280;10836;53.068;18.234;2023-06-22T02:34:00;101313.66;;;17.02;100.00
21357;BME280;10836;53.068;18.234;2023-06-22T02:36:27;101312.94;;;16.96;100.00
21357;BME280;10836;53.068;18.234;2023-06-22T02:38:58;101325.00;;;17.00;100.00
21357;BME280;10836;53.068;18.234;2023-06-22T02:41:29;101324.75;;;17.15;100.00
21357;BME280;10836;53.068;18.234;2023-06-22T02:43:56;101324.75;;;17.15;100.00
21357;BME280;10836;53.068;18.234;2023-06-22T02:46:24;101329.31;;;17.06;100.00
21357;BME280;10836;53.068;18.234;2023-06-22T02:48:52;101328.13;;;17.12;100.00
21357;BME280;10836;53.068;18.234;2023-06-22T02:51:19;101325.88;;;17.14;100.00
21357;BME280;10836;53.068;18.234;2023-06-22T02:53:46;101324.31;;;17.08;100.00
21357;BME280;10836;53.068;18.234;2023-06-22T02:56:15;101329.16;;;17.16;100.00
21357;BME280;10836;53.068;18.234;2023-06-22T02:58:43;101325.44;;;17.07;100.00
21357;BME280;10836;53.068;18.234;2023-06-22T03:01:11;101331.56;;;17.04;100.00
21357;BME280;10836;53.068;18.234;2023-06-22T03:03:44;101326.03;;;17.04;100.00
21357;BME280;10836;53.068;18.234;2023-06-22T03:06:11;101333.94;;;17.11;100.00
21357;BME280;10836;53.068;18.234;2023-06-22T03:08:41;101333.41;;;17.09;100.00
21357;BME280;10836;53.068;18.234;2023-06-22T03:11:08;101337.09;;;17.04;100.00
21357;BME280;10836;53.068;18.234;2023-06-22T03:13:36;101342.50;;;17.09;100.00
21357;BME280;10836;53.068;18.234;2023-06-22T03:16:03;101342.22;;;17.11;100.00
21357;BME280;10836;53.068;18.234;2023-06-22T03:18:30;101340.56;;;17.10;100.00
21357;BME280;10836;53.068;18.234;2023-06-22T03:20:57;101348.56;;;17.11;100.00
21357;BME280;10836;53.068;18.234;2023-06-22T03:23:24;101351.31;;;17.11;100.00
21357;BME280;10836;53.068;18.234;2023-06-22T03:25:51;101353.91;;;17.21;100.00
21357;BME280;10836;53.068;18.234;2023-06-22T03:28:25;101347.19;;;17.27;100.00
21357;BME280;10836;53.068;18.234;2023-06-22T03:30:52;101355.72;;;17.12;100.00
21357;BME280;10836;53.068;18.234;2023-06-22T03:33:19;101363.31;;;17.20;100.00
21357;BME280;10836;53.068;18.234;2023-06-22T03:35:46;101355.75;;;17.26;100.00
21357;BME280;10836;53.068;18.234;2023-06-22T03:38:14;101356.75;;;17.16;100.00
21357;BME280;10836;53.068;18.234;2023-06-22T03:40:40;101357.78;;;17.20;100.00
21357;BME280;10836;53.068;18.234;2023-06-22T03:45:59;101371.13;;;17.32;100.00
21357;BME280;10836;53.068;18.234;2023-06-22T03:48:26;101370.09;;;17.42;100.00
21357;BME280;10836;53.068;18.234;2023-06-22T03:50:53;101375.44;;;17.52;100.00
21357;BME280;10836;53.068;18.234;2023-06-22T03:56:27;101380.75;;;17.48;100.00
21357;BME280;10836;53.068;18.234;2023-06-22T04:01:40;101381.31;;;17.64;100.00
21357;BME280;10836;53.068;18.234;2023-06-22T04:04:07;101385.06;;;17.54;100.00
21357;BME280;10836;53.068;18.234;2023-06-22T04:06:34;101378.28;;;17.66;100.00
21357;BME280;10836;53.068;18.234;2023-06-22T04:11:51;101386.69;;;17.74;100.00
21357;BME280;10836;53.068;18.234;2023-06-22T04:14:18;101385.34;;;17.85;100.00
21357;BME280;10836;53.068;18.234;2023-06-22T04:16:45;101384.91;;;17.78;100.00
21357;BME280;10836;53.068;18.234;2023-06-22T04:22:18;101386.38;;;17.89;100.00
21357;BME280;10836;53.068;18.234;2023-06-22T04:24:45;101381.88;;;17.93;100.00
21357;BME280;10836;53.068;18.234;2023-06-22T04:27:22;101385.75;;;17.92;100.00
21357;BME280;10836;53.068;18.234;2023-06-22T04:29:50;101386.97;;;17.86;100.00
21357;BME280;10836;53.068;18.234;2023-06-22T04:32:18;101385.97;;;17.96;100.00
21357;BME280;10836;53.068;18.234;2023-06-22T04:34:45;101378.81;;;18.09;100.00
21357;BME280;10836;53.068;18.234;2023-06-22T04:40:30;101388.13;;;18.13;100.00
21357;BME280;10836;53.068;18.234;2023-06-22T04:42:57;101381.84;;;18.21;100.00
21357;BME280;10836;53.068;18.234;2023-06-22T04:45:24;101381.84;;;18.21;100.00
21357;BME280;10836;53.068;18.234;2023-06-22T04:50:50;101373.34;;;18.31;100.00
21357;BME280;10836;53.068;18.234;2023-06-22T04:53:17;101375.91;;;18.41;100.00
21357;BME280;10836;53.068;18.234;2023-06-22T04:56:09;101375.91;;;18.41;100.00
21357;BME280;10836;53.068;18.234;2023-06-22T04:58:36;101374.47;;;18.44;100.00
21357;BME280;10836;53.068;18.234;2023-06-22T05:01:03;101392.47;;;18.55;100.00
21357;BME280;10836;53.068;18.234;2023-06-22T05:03:56;101391.59;;;18.82;100.00
21357;BME280;10836;53.068;18.234;2023-06-22T05:06:24;101392.13;;;18.84;100.00
21357;BME280;10836;53.068;18.234;2023-06-22T05:08:55;101397.75;;;18.79;100.00
21357;BME280;10836;53.068;18.234;2023-06-22T05:14:34;101405.72;;;18.94;100.00
21357;BME280;10836;53.068;18.234;2023-06-22T05:17:01;101406.47;;;19.08;100.00
21357;BME280;10836;53.068;18.234;2023-06-22T05:19:31;101408.72;;;19.06;100.00
21357;BME280;10836;53.068;18.234;2023-06-22T05:22:25;101414.84;;;19.17;100.00
21357;BME280;10836;53.068;18.234;2023-06-22T05:24:52;101419.19;;;19.09;100.00
21357;BME280;10836;53.068;18.234;2023-06-22T05:27:22;101427.34;;;19.14;100.00
21357;BME280;10836;53.068;18.234;2023-06-22T05:29:48;101417.28;;;19.18;100.00
21357;BME280;10836;53.068;18.234;2023-06-22T05:32:49;101405.22;;;19.37;100.00
21357;BME280;10836;53.068;18.234;2023-06-22T05:35:16;101417.19;;;19.46;100.00
21357;BME280;10836;53.068;18.234;2023-06-22T05:40:25;101426.56;;;19.58;100.00
21357;BME280;10836;53.068;18.234;2023-06-22T05:42:54;101435.94;;;19.71;100.00
21357;BME280;10836;53.068;18.234;2023-06-22T05:45:21;101426.03;;;19.79;100.00
21357;BME280;10836;53.068;18.234;2023-06-22T05:47:48;101427.09;;;19.91;100.00
21357;BME280;10836;53.068;18.234;2023-06-22T05:50:25;101432.19;;;20.07;100.00
21357;BME280;10836;53.068;18.234;2023-06-22T05:52:52;101436.59;;;20.08;100.00
21357;BME280;10836;53.068;18.234;2023-06-22T05:55:19;101423.22;;;20.49;100.00
21357;BME280;10836;53.068;18.234;2023-06-22T05:57:46;101418.53;;;20.19;100.00
21357;BME280;10836;53.068;18.234;2023-06-22T06:00:13;101428.16;;;20.61;100.00
21357;BME280;10836;53.068;18.234;2023-06-22T06:02:58;101419.47;;;21.66;96.54
21357;BME280;10836;53.068;18.234;2023-06-22T06:05:31;101417.19;;;22.74;88.41
21357;BME280;10836;53.068;18.234;2023-06-22T06:08:03;101415.41;;;24.46;78.13
21357;BME280;10836;53.068;18.234;2023-06-22T06:10:56;101423.47;;;25.00;74.31
21357;BME280;10836;53.068;18.234;2023-06-22T06:13:24;101418.69;;;25.29;73.08
21357;BME280;10836;53.068;18.234;2023-06-22T06:15:51;101421.00;;;25.82;68.71
21357;BME280;10836;53.068;18.234;2023-06-22T06:18:21;101426.34;;;25.44;68.23
21357;BME280;10836;53.068;18.234;2023-06-22T06:20:48;101417.75;;;27.13;60.51
21357;BME280;10836;53.068;18.234;2023-06-22T06:23:33;101421.34;;;27.75;56.27
21357;BME280;10836;53.068;18.234;2023-06-22T06:26:00;101422.88;;;28.68;51.84
21357;BME280;10836;53.068;18.234;2023-06-22T06:28:28;101414.75;;;27.87;54.02
21357;BME280;10836;53.068;18.234;2023-06-22T06:30:55;101421.88;;;27.20;53.59
21357;BME280;10836;53.068;18.234;2023-06-22T06:33:47;101428.69;;;25.58;60.88
21357;BME280;10836;53.068;18.234;2023-06-22T06:36:14;101433.69;;;25.08;63.10
21357;BME280;10836;53.068;18.234;2023-06-22T06:38:41;101438.31;;;25.16;64.23
21357;BME280;10836;53.068;18.234;2023-06-22T06:41:34;101431.66;;;25.21;62.23
21357;BME280;10836;53.068;18.234;2023-06-22T06:44:01;101428.72;;;23.92;65.86
21357;BME280;10836;53.068;18.234;2023-06-22T06:46:28;101430.50;;;23.31;72.02
21357;BME280;10836;53.068;18.234;2023-06-22T06:48:55;101425.22;;;23.50;70.67
21357;BME280;10836;53.068;18.234;2023-06-22T06:54:18;101418.81;;;23.70;71.87
21357;BME280;10836;53.068;18.234;2023-06-22T06:56:47;101418.59;;;23.75;69.47
21357;BME280;10836;53.068;18.234;2023-06-22T06:59:40;101414.47;;;24.30;66.68
21357;BME280;10836;53.068;18.234;2023-06-22T07:02:07;101409.56;;;24.64;64.10
21357;BME280;10836;53.068;18.234;2023-06-22T07:04:34;101413.03;;;24.73;61.10
21357;BME280;10836;53.068;18.234;2023-06-22T07:07:26;101418.84;;;25.20;58.61
21357;BME280;10836;53.068;18.234;2023-06-22T07:09:53;101419.81;;;25.40;58.62
21357;BME280;10836;53.068;18.234;2023-06-22T07:12:20;101422.03;;;25.62;57.24
21357;BME280;10836;53.068;18.234;2023-06-22T07:14:47;101420.22;;;25.26;58.64
21357;BME280;10836;53.068;18.234;2023-06-22T07:19:59;101417.56;;;25.17;56.32
21357;BME280;10836;53.068;18.234;2023-06-22T07:22:27;101424.72;;;25.43;56.40
21357;BME280;10836;53.068;18.234;2023-06-22T07:24:54;101428.66;;;25.42;54.81
21357;BME280;10836;53.068;18.234;2023-06-22T07:27:21;101424.44;;;25.76;55.99
21357;BME280;10836;53.068;18.234;2023-06-22T07:29:48;101421.72;;;26.11;54.98
21357;BME280;10836;53.068;18.234;2023-06-22T07:32:40;101424.06;;;26.09;52.78
21357;BME280;10836;53.068;18.234;2023-06-22T07:35:08;101435.00;;;26.30;52.49
21357;BME280;10836;53.068;18.234;2023-06-22T07:37:35;101430.19;;;26.62;50.38
21357;BME280;10836;53.068;18.234;2023-06-22T07:40:21;101432.56;;;26.28;51.96
21357;BME280;10836;53.068;18.234;2023-06-22T07:42:48;101438.00;;;25.62;51.37
21357;BME280;10836;53.068;18.234;2023-06-22T07:45:15;101435.63;;;26.23;54.46
21357;BME280;10836;53.068;18.234;2023-06-22T07:47:42;101441.84;;;26.48;51.25
21357;BME280;10836;53.068;18.234;2023-06-22T07:50:09;101443.47;;;26.02;51.54
21357;BME280;10836;53.068;18.234;2023-06-22T07:52:57;101444.13;;;26.27;53.59
21357;BME280;10836;53.068;18.234;2023-06-22T07:55:24;101454.59;;;25.82;51.64
21357;BME280;10836;53.068;18.234;2023-06-22T07:57:51;101437.38;;;25.96;50.08
21357;BME280;10836;53.068;18.234;2023-06-22T08:00:19;101436.72;;;26.03;49.64
21357;BME280;10836;53.068;18.234;2023-06-22T08:03:04;101440.88;;;26.09;50.00
21357;BME280;10836;53.068;18.234;2023-06-22T08:05:32;101438.19;;;25.97;51.29
21357;BME280;10836;53.068;18.234;2023-06-22T08:07:59;101437.06;;;26.48;47.73
21357;BME280;10836;53.068;18.234;2023-06-22T08:10:26;101450.34;;;26.20;49.89
21357;BME280;10836;53.068;18.234;2023-06-22T08:13:31;101439.81;;;25.98;47.55
21357;BME280;10836;53.068;18.234;2023-06-22T08:15:58;101451.47;;;26.31;46.59
21357;BME280;10836;53.068;18.234;2023-06-22T08:18:51;101452.25;;;26.47;47.73
21357;BME280;10836;53.068;18.234;2023-06-22T08:21:18;101457.47;;;27.00;45.15
21357;BME280;10836;53.068;18.234;2023-06-22T08:23:45;101455.94;;;27.02;47.23
21357;BME280;10836;53.068;18.234;2023-06-22T08:26:12;101453.00;;;27.53;47.07
21357;BME280;10836;53.068;18.234;2023-06-22T08:29:19;101459.63;;;28.06;44.28
21357;BME280;10836;53.068;18.234;2023-06-22T08:31:46;101458.13;;;28.12;42.82
21357;BME280;10836;53.068;18.234;2023-06-22T08:34:39;101459.28;;;27.89;41.08
21357;BME280;10836;53.068;18.234;2023-06-22T08:37:09;101454.63;;;27.96;41.06
21357;BME280;10836;53.068;18.234;2023-06-22T08:39:36;101453.56;;;27.43;42.90
21357;BME280;10836;53.068;18.234;2023-06-22T08:42:03;101459.03;;;27.74;42.35
21357;BME280;10836;53.068;18.234;2023-06-22T08:44:30;101457.34;;;27.31;42.97
21357;BME280;10836;53.068;18.234;2023-06-22T08:47:22;101461.28;;;27.88;43.17
21357;BME280;10836;53.068;18.234;2023-06-22T08:49:50;101461.53;;;27.79;40.79
21357;BME280;10836;53.068;18.234;2023-06-22T08:52:18;101452.09;;;27.49;42.09
21357;BME280;10836;53.068;18.234;2023-06-22T08:54:47;101449.25;;;27.88;41.78
21357;BME280;10836;53.068;18.234;2023-06-22T08:57:39;101448.38;;;28.52;43.78
21357;BME280;10836;53.068;18.234;2023-06-22T09:00:08;101444.31;;;28.50;42.46
21357;BME280;10836;53.068;18.234;2023-06-22T09:02:57;101447.16;;;28.79;40.74
21357;BME280;10836;53.068;18.234;2023-06-22T09:05:26;101455.34;;;28.88;40.35
21357;BME280;10836;53.068;18.234;2023-06-22T09:07:53;101458.00;;;29.07;41.32
21357;BME280;10836;53.068;18.234;2023-06-22T09:10:21;101446.75;;;29.07;40.26
21357;BME280;10836;53.068;18.234;2023-06-22T09:12:48;101442.75;;;29.38;39.42
21357;BME280;10836;53.068;18.234;2023-06-22T09:15:41;101441.81;;;28.44;40.28
21357;BME280;10836;53.068;18.234;2023-06-22T09:18:10;101441.00;;;28.44;39.69
21357;BME280;10836;53.068;18.234;2023-06-22T09:20:38;101439.44;;;28.46;39.51
21357;BME280;10836;53.068;18.234;2023-06-22T09:23:29;101423.50;;;29.10;38.73
21357;BME280;10836;53.068;18.234;2023-06-22T09:25:56;101429.13;;;29.10;38.14
21357;BME280;10836;53.068;18.234;2023-06-22T09:28:23;101423.75;;;28.72;39.37
21357;BME280;10836;53.068;18.234;2023-06-22T09:30:50;101430.53;;;28.94;39.34
21357;BME280;10836;53.068;18.234;2023-06-22T09:33:42;101425.84;;;29.05;37.44
21357;BME280;10836;53.068;18.234;2023-06-22T09:36:09;101421.69;;;28.69;38.07
21357;BME280;10836;53.068;18.234;2023-06-22T09:38:37;101420.41;;;28.63;39.35
21357;BME280;10836;53.068;18.234;2023-06-22T09:41:29;101414.97;;;29.03;36.10
21357;BME280;10836;53.068;18.234;2023-06-22T09:43:56;101412.19;;;29.07;36.92
21357;BME280;10836;53.068;18.234;2023-06-22T09:46:23;101416.84;;;28.92;37.25
21357;BME280;10836;53.068;18.234;2023-06-22T09:48:53;101409.44;;;29.10;38.08
21357;BME280;10836;53.068;18.234;2023-06-22T09:51:34;101412.84;;;29.60;38.73
21357;BME280;10836;53.068;18.234;2023-06-22T09:54:01;101422.56;;;29.66;40.94
21357;BME280;10836;53.068;18.234;2023-06-22T09:56:53;101419.19;;;29.94;37.23
21357;BME280;10836;53.068;18.234;2023-06-22T09:59:20;101411.91;;;30.30;35.59
21357;BME280;10836;53.068;18.234;2023-06-22T10:01:47;101423.47;;;29.77;35.46
21357;BME280;10836;53.068;18.234;2023-06-22T10:04:39;101431.47;;;29.72;35.96
21357;BME280;10836;53.068;18.234;2023-06-22T10:07:07;101412.44;;;29.25;36.04
21357;BME280;10836;53.068;18.234;2023-06-22T10:09:34;101414.34;;;29.51;36.72
21357;BME280;10836;53.068;18.234;2023-06-22T10:12:01;101412.00;;;29.56;35.50
21357;BME280;10836;53.068;18.234;2023-06-22T10:14:53;101419.63;;;29.22;36.37
21357;BME280;10836;53.068;18.234;2023-06-22T10:17:20;101418.03;;;29.58;35.50
21357;BME280;10836;53.068;18.234;2023-06-22T10:19:47;101412.88;;;29.64;36.14
21357;BME280;10836;53.068;18.234;2023-06-22T10:22:15;101422.31;;;29.41;34.17
21357;BME280;10836;53.068;18.234;2023-06-22T10:25:12;101402.47;;;30.63;35.58
21357;BME280;10836;53.068;18.234;2023-06-22T10:27:39;101406.47;;;30.07;35.92
21357;BME280;10836;53.068;18.234;2023-06-22T10:30:08;101403.75;;;29.74;35.67
21357;BME280;10836;53.068;18.234;2023-06-22T10:33:02;101395.03;;;30.37;35.95
21357;BME280;10836;53.068;18.234;2023-06-22T10:35:32;101402.97;;;30.83;32.69
21357;BME280;10836;53.068;18.234;2023-06-22T10:37:59;101402.06;;;30.10;33.56
21357;BME280;10836;53.068;18.234;2023-06-22T10:40:51;101396.19;;;29.82;35.26
21357;BME280;10836;53.068;18.234;2023-06-22T10:43:18;101401.91;;;29.96;33.48
21357;BME280;10836;53.068;18.234;2023-06-22T10:45:45;101406.06;;;30.05;33.88
21357;BME280;10836;53.068;18.234;2023-06-22T10:48:37;101392.66;;;30.47;33.70
21357;BME280;10836;53.068;18.234;2023-06-22T10:51:04;101403.88;;;30.39;33.02
21357;BME280;10836;53.068;18.234;2023-06-22T10:53:31;101396.91;;;30.77;32.85
21357;BME280;10836;53.068;18.234;2023-06-22T10:55:58;101385.81;;;31.20;31.98
21357;BME280;10836;53.068;18.234;2023-06-22T10:58:51;101392.81;;;30.64;33.08
21357;BME280;10836;53.068;18.234;2023-06-22T11:01:18;101382.59;;;30.45;33.70
21357;BME280;10836;53.068;18.234;2023-06-22T11:03:52;101384.53;;;30.34;34.46
21357;BME280;10836;53.068;18.234;2023-06-22T11:06:44;101379.47;;;30.03;32.46
21357;BME280;10836;53.068;18.234;2023-06-22T11:09:11;101374.81;;;30.21;33.79
21357;BME280;10836;53.068;18.234;2023-06-22T11:11:53;101378.38;;;30.80;34.68
21357;BME280;10836;53.068;18.234;2023-06-22T11:14:20;101382.44;;;30.21;31.86
21357;BME280;10836;53.068;18.234;2023-06-22T11:17:14;101384.00;;;29.70;36.38
21357;BME280;10836;53.068;18.234;2023-06-22T11:19:42;101385.78;;;29.89;35.13
21357;BME280;10836;53.068;18.234;2023-06-22T11:22:08;101394.88;;;30.16;33.04
21357;BME280;10836;53.068;18.234;2023-06-22T11:24:35;101396.41;;;30.58;31.95
21357;BME280;10836;53.068;18.234;2023-06-22T11:27:09;101376.16;;;31.14;32.95
21357;BME280;10836;53.068;18.234;2023-06-22T11:29:36;101385.91;;;31.52;31.89
21357;BME280;10836;53.068;18.234;2023-06-22T11:32:06;101380.78;;;30.78;31.15
21357;BME280;10836;53.068;18.234;2023-06-22T11:34:34;101382.31;;;31.62;32.76
21357;BME280;10836;53.068;18.234;2023-06-22T11:37:01;101387.94;;;31.52;30.53
21357;BME280;10836;53.068;18.234;2023-06-22T11:39:49;101374.69;;;30.62;32.71
21357;BME280;10836;53.068;18.234;2023-06-22T11:42:32;101381.28;;;30.94;34.29
21357;BME280;10836;53.068;18.234;2023-06-22T11:47:58;101380.06;;;30.92;33.74
21357;BME280;10836;53.068;18.234;2023-06-22T11:53:16;101380.25;;;31.66;31.64
21357;BME280;10836;53.068;18.234;2023-06-22T11:55:44;101380.09;;;31.02;31.60
21357;BME280;10836;53.068;18.234;2023-06-22T11:58:12;101369.75;;;31.35;31.42
21357;BME280;10836;53.068;18.234;2023-06-22T12:03:41;101375.50;;;31.95;33.30
21357;BME280;10836;53.068;18.234;2023-06-22T12:06:10;101357.09;;;30.93;32.24
21357;BME280;10836;53.068;18.234;2023-06-22T12:08:37;101347.56;;;30.43;33.33
21357;BME280;10836;53.068;18.234;2023-06-22T12:11:07;101362.91;;;30.53;33.20
21357;BME280;10836;53.068;18.234;2023-06-22T12:13:52;101358.81;;;30.43;34.00
21357;BME280;10836;53.068;18.234;2023-06-22T12:16:19;101348.59;;;30.86;31.62
21357;BME280;10836;53.068;18.234;2023-06-22T12:18:48;101349.91;;;30.34;31.50
21357;BME280;10836;53.068;18.234;2023-06-22T12:21:15;101342.91;;;29.62;34.31
21357;BME280;10836;53.068;18.234;2023-06-22T12:24:00;101339.13;;;29.92;31.66
21357;BME280;10836;53.068;18.234;2023-06-22T12:26:27;101327.88;;;30.50;31.93
21357;BME280;10836;53.068;18.234;2023-06-22T12:28:54;101335.47;;;30.42;30.77
21357;BME280;10836;53.068;18.234;2023-06-22T12:31:21;101343.72;;;30.69;31.65
21357;BME280;10836;53.068;18.234;2023-06-22T12:34:13;101335.25;;;30.07;31.81
21357;BME280;10836;53.068;18.234;2023-06-22T12:36:40;101331.38;;;30.26;30.93
21357;BME280;10836;53.068;18.234;2023-06-22T12:39:07;101328.06;;;30.13;31.97
21357;BME280;10836;53.068;18.234;2023-06-22T12:44:23;101331.03;;;29.83;30.81
21357;BME280;10836;53.068;18.234;2023-06-22T12:50:00;101326.44;;;30.12;32.64
21357;BME280;10836;53.068;18.234;2023-06-22T12:52:30;101316.09;;;30.30;32.54
21357;BME280;10836;53.068;18.234;2023-06-22T12:54:57;101322.38;;;29.58;30.67
21357;BME280;10836;53.068;18.234;2023-06-22T13:00:07;101307.06;;;30.69;29.96
21357;BME280;10836;53.068;18.234;2023-06-22T13:08:03;101304.31;;;30.90;30.50
21357;BME280;10836;53.068;18.234;2023-06-22T13:10:31;101297.91;;;31.07;29.17
21357;BME280;10836;53.068;18.234;2023-06-22T13:12:58;101301.03;;;30.81;32.17
21357;BME280;10836;53.068;18.234;2023-06-22T13:18:26;101300.22;;;30.77;30.35
21357;BME280;10836;53.068;18.234;2023-06-22T13:20:53;101298.19;;;30.67;32.87
21357;BME280;10836;53.068;18.234;2023-06-22T13:26:21;101295.22;;;29.80;30.00
21357;BME280;10836;53.068;18.234;2023-06-22T13:28:47;101290.75;;;29.75;31.92
21357;BME280;10836;53.068;18.234;2023-06-22T13:31:40;101287.66;;;29.95;31.12
21357;BME280;10836;53.068;18.234;2023-06-22T13:37:17;101290.72;;;31.28;32.15
21357;BME280;10836;53.068;18.234;2023-06-22T13:39:44;101283.44;;;31.13;31.51
21357;BME280;10836;53.068;18.234;2023-06-22T13:42:11;101281.03;;;31.25;30.58
21357;BME280;10836;53.068;18.234;2023-06-22T13:47:27;101275.41;;;32.00;30.41
21357;BME280;10836;53.068;18.234;2023-06-22T13:49:58;101283.47;;;31.41;30.70
21357;BME280;10836;53.068;18.234;2023-06-22T13:52:25;101273.38;;;31.36;31.21
21357;BME280;10836;53.068;18.234;2023-06-22T13:57:58;101277.84;;;31.59;29.30
21357;BME280;10836;53.068;18.234;2023-06-22T14:13:18;101261.31;;;31.71;29.89
21357;BME280;10836;53.068;18.234;2023-06-22T14:15:45;101259.69;;;31.56;29.69
21357;BME280;10836;53.068;18.234;2023-06-22T14:18:40;101264.09;;;31.22;31.13
21357;BME280;10836;53.068;18.234;2023-06-22T14:21:07;101257.63;;;31.07;30.90
21357;BME280;10836;53.068;18.234;2023-06-22T14:23:34;101255.16;;;30.91;30.27